Time;durP1;ratioP1;P1;durP2;ratioP2;P2;SDS_P1;SDS_P2;PMS_P1;PMS_P2;Temp;Humidity;BMP_temperature;BMP_pressure;BME280_temperature;BME280_humidity;BME280_pressure;Samples;Min_cycle;Max_cycle;Signal;HPM_P1;HPM_P2
2022/11/05 06:02:18;;;;;;;7.60;5.07;;;9.40;99.90;;;;;;5570369;23;20114;-71
2022/11/05 06:04:44;;;;;;;7.63;5.55;;;9.40;99.90;;;;;;4981034;28;20193;-71
2022/11/05 06:07:10;;;;;;;9.13;5.88;;;9.40;99.90;;;;;;4985352;28;20312;-71
2022/11/05 06:09:35;;;;;;;12.38;7.40;;;9.40;99.90;;;;;;4984646;28;20336;-71
2022/11/05 06:12:01;;;;;;;10.75;7.80;;;9.40;99.90;;;;;;4985443;28;20027;-71
2022/11/05 06:14:27;;;;;;;11.57;7.85;;;9.50;99.90;;;;;;4985074;28;20272;-71
2022/11/05 06:16:52;;;;;;;12.50;8.48;;;9.40;99.90;;;;;;4985348;28;20050;-71
2022/11/05 06:19:18;;;;;;;12.60;8.77;;;9.40;99.90;;;;;;4985027;28;20039;-71
2022/11/05 06:21:44;;;;;;;15.13;10.43;;;9.40;99.90;;;;;;4973298;28;20344;-71
2022/11/05 06:24:10;;;;;;;14.57;10.20;;;9.40;99.90;;;;;;4965950;29;20082;-71
2022/11/05 06:26:41;;;;;;;16.52;10.27;;;9.40;99.90;;;;;;4947580;29;20026;-71
2022/11/05 06:29:09;;;;;;;16.70;10.77;;;9.40;99.90;;;;;;4965851;29;20039;-71
2022/11/05 06:31:35;;;;;;;18.35;10.95;;;9.40;99.90;;;;;;4965231;29;20034;-71
2022/11/05 06:34:01;;;;;;;26.15;17.65;;;9.40;99.90;;;;;;4965645;29;20043;-71
2022/11/05 06:36:27;;;;;;;20.60;13.13;;;9.40;99.90;;;;;;4977700;28;20042;-71
2022/11/05 06:38:53;;;;;;;17.50;12.15;;;9.40;99.90;;;;;;4984049;28;20201;-71
2022/11/05 06:41:18;;;;;;;17.98;12.57;;;9.40;99.90;;;;;;4984460;28;20299;-71
2022/11/05 06:43:44;;;;;;;19.63;13.30;;;9.40;99.90;;;;;;4984324;28;20031;-71
2022/11/05 06:46:10;;;;;;;20.13;13.25;;;9.30;99.90;;;;;;4984309;28;20019;-71
2022/11/05 06:48:37;;;;;;;19.58;13.25;;;9.30;99.90;;;;;;4984246;28;20304;-71
2022/11/05 06:51:03;;;;;;;22.52;13.98;;;9.30;99.90;;;;;;4985159;28;20049;-71
2022/11/05 06:53:28;;;;;;;23.33;13.93;;;9.20;99.90;;;;;;4984560;28;20304;-70
2022/11/05 06:55:54;;;;;;;20.20;13.52;;;9.20;99.90;;;;;;4984069;28;20039;-71
2022/11/05 06:58:20;;;;;;;21.13;13.32;;;9.20;99.90;;;;;;4984595;28;20038;-70
2022/11/05 07:00:46;;;;;;;20.33;12.82;;;9.30;99.90;;;;;;4983913;28;20062;-72
2022/11/05 07:03:13;;;;;;;23.70;13.18;;;9.30;99.90;;;;;;4983878;28;20053;-71
2022/11/05 07:05:42;;;;;;;20.75;13.05;;;9.30;99.90;;;;;;4983422;28;20338;-73
2022/11/05 07:08:08;;;;;;;20.80;13.75;;;9.40;99.90;;;;;;4984225;28;20034;-72
2022/11/05 07:10:34;;;;;;;21.33;13.60;;;9.40;99.90;;;;;;4984280;28;20030;-71
2022/11/05 07:13:00;;;;;;;19.08;13.50;;;9.40;99.90;;;;;;4966516;28;20023;-71
2022/11/05 07:15:25;;;;;;;21.23;13.40;;;9.50;99.90;;;;;;4983953;28;20038;-70
2022/11/05 07:17:56;;;;;;;20.98;14.15;;;9.50;99.90;;;;;;4966355;28;20033;-71
2022/11/05 07:20:22;;;;;;;21.08;12.90;;;9.60;99.90;;;;;;4983839;28;20053;-71
2022/11/05 07:22:48;;;;;;;21.67;13.10;;;9.70;99.90;;;;;;4983318;28;20023;-71
2022/11/05 07:25:13;;;;;;;21.23;13.55;;;9.70;99.90;;;;;;4983795;28;20026;-71
2022/11/05 07:27:39;;;;;;;23.15;13.05;;;9.70;99.90;;;;;;4983458;28;20026;-71
2022/11/05 07:30:07;;;;;;;19.90;12.90;;;9.70;99.90;;;;;;4983979;28;20031;-71
2022/11/05 07:32:40;;;;;;;43.28;30.13;;;9.70;99.90;;;;;;4966868;28;20062;-71
2022/11/05 07:35:07;;;;;;;21.98;13.43;;;9.80;99.90;;;;;;4983772;28;20026;-71
2022/11/05 07:37:50;;;;;;;21.92;13.70;;;9.80;99.90;;;;;;4982702;28;20077;-71
2022/11/05 07:40:18;;;;;;;20.67;13.20;;;9.80;99.90;;;;;;4983835;28;20090;-71
2022/11/05 07:42:45;;;;;;;20.10;12.70;;;9.90;99.90;;;;;;4983277;28;20047;-76
2022/11/05 07:45:12;;;;;;;17.73;12.00;;;9.90;99.90;;;;;;4983426;28;20098;-72
2022/11/05 07:47:44;;;;;;;20.58;13.13;;;10.00;99.90;;;;;;4983172;28;20030;-72
2022/11/05 07:50:10;;;;;;;20.65;12.00;;;10.00;99.90;;;;;;4966067;28;20035;-71
2022/11/05 07:52:36;;;;;;;18.63;11.50;;;9.90;99.90;;;;;;4983702;28;20042;-71
2022/11/05 07:55:01;;;;;;;19.00;12.05;;;9.90;99.90;;;;;;4965637;28;20038;-70
2022/11/05 07:57:27;;;;;;;18.60;11.30;;;9.90;99.90;;;;;;4983691;28;20086;-71
2022/11/05 07:59:53;;;;;;;18.92;12.32;;;9.90;99.90;;;;;;4983174;28;20037;-74
2022/11/05 08:02:18;;;;;;;19.17;11.95;;;9.90;99.90;;;;;;4983216;28;20038;-72
2022/11/05 08:04:44;;;;;;;19.92;11.68;;;9.90;99.90;;;;;;4962448;29;20027;-71
2022/11/05 08:07:10;;;;;;;19.42;12.50;;;9.90;99.90;;;;;;4963896;29;20063;-74
2022/11/05 08:09:35;;;;;;;17.92;12.27;;;9.90;99.90;;;;;;4947054;29;20035;-74
2022/11/05 08:12:01;;;;;;;18.95;12.82;;;9.90;99.90;;;;;;4963306;29;20036;-73
2022/11/05 08:14:27;;;;;;;18.83;12.43;;;10.00;99.90;;;;;;4946662;29;20060;-73
2022/11/05 08:16:52;;;;;;;18.55;12.10;;;10.00;99.90;;;;;;4945955;29;20065;-74
2022/11/05 08:19:18;;;;;;;16.45;11.77;;;10.00;99.90;;;;;;4964307;29;20023;-72
2022/11/05 08:21:44;;;;;;;18.58;11.80;;;10.00;99.90;;;;;;4963745;29;20023;-74
2022/11/05 08:24:10;;;;;;;13.45;8.82;;;10.00;99.90;;;;;;4973461;28;20026;-71
2022/11/05 08:26:35;;;;;;;10.40;7.35;;;9.90;99.90;;;;;;4965973;28;20034;-72
2022/11/05 08:29:01;;;;;;;10.32;7.22;;;9.80;99.90;;;;;;4982725;28;20086;-72
2022/11/05 08:31:27;;;;;;;8.23;5.43;;;9.80;99.90;;;;;;4982018;28;20034;-75
2022/11/05 08:33:53;;;;;;;7.45;4.60;;;9.60;99.90;;;;;;4982696;28;20102;-73
2022/11/05 08:36:19;;;;;;;6.18;4.43;;;9.50;99.90;;;;;;4983056;28;20027;-76
2022/11/05 08:38:44;;;;;;;6.25;3.80;;;9.50;99.90;;;;;;4965068;28;20038;-74
2022/11/05 08:41:10;;;;;;;8.13;4.25;;;9.40;99.90;;;;;;4982573;28;20031;-72
2022/11/05 08:43:36;;;;;;;6.30;4.22;;;9.30;99.90;;;;;;4965577;28;20268;-76
2022/11/05 08:46:02;;;;;;;7.80;3.90;;;9.20;99.90;;;;;;4983100;28;20061;-76
2022/11/05 08:48:27;;;;;;;6.28;3.58;;;9.10;99.90;;;;;;4983777;28;20341;-73
2022/11/05 08:50:53;;;;;;;7.30;3.83;;;9.10;99.90;;;;;;4986338;28;20086;-75
2022/11/05 08:53:19;;;;;;;6.68;3.88;;;9.10;99.90;;;;;;4986466;28;20039;-76
2022/11/05 08:55:46;;;;;;;6.82;4.22;;;9.20;99.90;;;;;;4986061;28;20050;-73
2022/11/05 08:58:15;;;;;;;7.70;4.18;;;9.20;99.90;;;;;;4975819;28;20035;-71
2022/11/05 09:00:47;;;;;;;8.07;4.13;;;9.10;99.90;;;;;;4949572;29;20306;-73
2022/11/05 09:03:13;;;;;;;6.40;3.90;;;9.20;99.90;;;;;;4966706;29;20051;-72
2022/11/05 09:05:40;;;;;;;6.10;3.50;;;9.30;99.90;;;;;;4981626;28;20027;-73
2022/11/05 09:08:12;;;;;;;5.45;3.25;;;9.40;99.90;;;;;;4986237;28;20056;-73
2022/11/05 09:10:38;;;;;;;7.45;3.60;;;9.50;99.90;;;;;;4986247;28;20035;-72
2022/11/05 09:13:05;;;;;;;6.45;3.78;;;9.60;99.90;;;;;;4985768;28;20026;-72
2022/11/05 09:15:32;;;;;;;6.93;3.38;;;9.80;99.90;;;;;;4986130;28;20035;-76
2022/11/05 09:17:58;;;;;;;6.28;3.45;;;9.70;99.90;;;;;;4985400;28;20127;-75
2022/11/05 09:20:24;;;;;;;4.80;2.90;;;9.80;99.90;;;;;;4985984;28;20113;-74
2022/11/05 09:22:50;;;;;;;5.25;3.00;;;9.90;99.90;;;;;;4985508;28;20321;-72
2022/11/05 09:25:16;;;;;;;4.88;3.13;;;9.90;99.90;;;;;;4986061;28;20033;-71
2022/11/05 09:27:42;;;;;;;6.72;3.83;;;9.90;99.90;;;;;;4978051;28;20217;-70
2022/11/05 09:30:09;;;;;;;5.93;3.78;;;9.90;99.90;;;;;;4981070;28;20042;-73
2022/11/05 09:32:35;;;;;;;5.55;3.70;;;9.90;99.90;;;;;;4985055;28;20078;-72
2022/11/05 09:35:01;;;;;;;5.95;3.95;;;9.90;99.90;;;;;;4967474;28;20282;-71
2022/11/05 09:37:27;;;;;;;6.78;3.83;;;9.90;99.90;;;;;;4984779;28;20110;-71
2022/11/05 09:39:53;;;;;;;8.00;4.00;;;9.90;99.90;;;;;;4983998;28;20029;-72
2022/11/05 09:42:23;;;;;;;7.65;4.00;;;9.90;99.90;;;;;;4984957;28;20027;-72
2022/11/05 09:44:58;;;;;;;6.95;4.43;;;9.90;99.90;;;;;;4983978;28;20113;-72
2022/11/05 09:47:35;;;;;;;7.32;4.88;;;9.90;99.90;;;;;;4984455;28;20074;-73
2022/11/05 09:50:06;;;;;;;9.07;5.10;;;10.00;99.90;;;;;;4984442;28;20447;-72
2022/11/05 09:52:33;;;;;;;7.95;5.38;;;10.00;99.90;;;;;;4985068;28;20501;-72
2022/11/05 09:55:01;;;;;;;9.45;5.28;;;10.10;99.90;;;;;;4967489;28;20027;-73
2022/11/05 09:57:31;;;;;;;9.35;5.93;;;10.00;99.90;;;;;;4984754;28;20025;-74
2022/11/05 10:00:00;;;;;;;10.98;5.63;;;9.90;99.90;;;;;;4983983;28;20035;-72
2022/11/05 10:02:36;;;;;;;9.57;5.85;;;10.00;99.90;;;;;;4983709;28;20275;-74
2022/11/05 10:05:06;;;;;;;9.75;5.88;;;10.10;99.90;;;;;;4983964;28;20030;-74
2022/11/05 10:07:41;;;;;;;11.48;6.72;;;10.00;99.90;;;;;;4984505;28;20038;-74
2022/11/05 10:10:17;;;;;;;11.52;7.03;;;9.90;99.90;;;;;;4983655;28;20066;-75
2022/11/05 10:12:48;;;;;;;11.27;6.78;;;10.10;99.90;;;;;;4983848;28;20030;-75
2022/11/05 10:15:29;;;;;;;13.13;7.78;;;10.20;99.90;;;;;;4984036;28;20077;-75
2022/11/05 10:18:20;;;;;;;12.88;7.28;;;10.30;99.90;;;;;;4983689;28;20023;-74
2022/11/05 10:20:45;;;;;;;10.35;7.18;;;10.30;99.90;;;;;;4984475;28;20041;-75
2022/11/05 10:23:17;;;;;;;12.25;7.68;;;10.30;99.90;;;;;;4984673;28;20050;-75
2022/11/05 10:25:56;;;;;;;11.48;7.70;;;10.30;99.90;;;;;;4987262;28;20092;-73
2022/11/05 10:28:24;;;;;;;13.77;7.57;;;10.30;99.90;;;;;;4984406;28;20030;-72
2022/11/05 10:30:55;;;;;;;10.60;7.20;;;10.30;99.90;;;;;;4983555;28;20039;-73
2022/11/05 10:33:38;;;;;;;14.43;8.50;;;10.30;99.90;;;;;;4984524;28;20312;-74
2022/11/05 10:36:08;;;;;;;11.73;7.13;;;10.40;99.90;;;;;;4969543;28;20229;-74
2022/11/05 10:38:34;;;;;;;11.95;7.45;;;10.30;99.90;;;;;;4972499;28;20054;-73
2022/11/05 10:41:24;;;;;;;12.38;7.10;;;10.40;99.90;;;;;;4965143;29;20293;-75
2022/11/05 10:43:55;;;;;;;11.63;7.00;;;10.50;99.90;;;;;;4957168;28;20197;-74
2022/11/05 10:46:43;;;;;;;9.85;6.15;;;10.60;99.90;;;;;;4982930;28;20320;-74
2022/11/05 10:49:23;;;;;;;11.85;6.70;;;10.70;99.90;;;;;;4983755;28;20046;-75
2022/11/05 10:51:55;;;;;;;10.30;6.00;;;10.70;99.90;;;;;;4966256;28;20031;-75
2022/11/05 10:54:29;;;;;;;10.63;6.25;;;10.80;99.90;;;;;;4982293;28;20082;-75
2022/11/05 10:56:54;;;;;;;9.52;5.95;;;11.00;99.90;;;;;;4971914;28;20065;-74
2022/11/05 10:59:26;;;;;;;12.27;6.40;;;11.20;99.90;;;;;;4975283;28;20125;-74
2022/11/05 11:01:59;;;;;;;13.05;7.03;;;11.60;99.90;;;;;;4969642;28;20046;-73
2022/11/05 11:04:28;;;;;;;8.55;5.28;;;12.10;99.90;;;;;;4976693;28;20066;-74
2022/11/05 11:06:55;;;;;;;;;;;12.30;99.90;;;;;;4974659;28;20106;-74
2022/11/05 11:09:24;;;;;;;10.55;5.68;;;12.20;99.90;;;;;;4971893;28;19915;-74
2022/11/05 11:12:00;;;;;;;9.50;5.65;;;12.10;99.90;;;;;;4977412;28;20035;-74
2022/11/05 11:14:26;;;;;;;9.55;5.05;;;12.20;99.90;;;;;;4982647;28;20058;-74
2022/11/05 11:16:56;;;;;;;11.52;4.97;;;12.30;99.90;;;;;;4982372;28;20056;-74
2022/11/05 11:19:30;;;;;;;10.02;5.03;;;12.30;99.90;;;;;;4983506;28;20072;-74
2022/11/05 11:22:01;;;;;;;7.22;4.70;;;12.40;99.90;;;;;;4965471;28;20026;-73
2022/11/05 11:24:28;;;;;;;11.23;5.20;;;12.30;99.90;;;;;;4982943;28;20372;-73
2022/11/05 11:27:00;;;;;;;8.05;4.82;;;12.20;99.90;;;;;;4982640;28;20042;-74
2022/11/05 11:29:28;;;;;;;7.88;4.47;;;12.10;99.90;;;;;;4982686;28;20038;-74
2022/11/05 11:31:56;;;;;;;8.90;4.80;;;12.10;99.90;;;;;;4982322;28;20034;-74
2022/11/05 11:34:34;;;;;;;7.25;4.25;;;11.90;99.90;;;;;;4978388;28;20031;-74
2022/11/05 11:37:14;;;;;;;8.33;4.60;;;11.80;99.90;;;;;;4982628;28;20334;-76
2022/11/05 11:39:44;;;;;;;6.88;4.80;;;11.90;99.90;;;;;;4957821;29;20442;-70
2022/11/05 11:42:34;;;;;;;8.43;4.90;;;11.90;99.90;;;;;;4963416;29;20035;-75
2022/11/05 11:45:07;;;;;;;11.25;5.22;;;12.00;99.90;;;;;;4963310;29;20059;-74
2022/11/05 11:47:32;;;;;;;7.00;4.88;;;12.20;99.90;;;;;;4946448;29;20030;-73
2022/11/05 11:50:02;;;;;;;8.35;5.13;;;12.40;99.90;;;;;;4946435;29;20245;-75
2022/11/05 11:52:51;;;;;;;7.30;4.97;;;12.30;99.90;;;;;;4975957;28;20375;-78
2022/11/05 11:55:20;;;;;;;8.90;4.80;;;12.20;99.90;;;;;;4938170;28;20046;-75
2022/11/05 11:57:52;;;;;;;7.95;5.20;;;12.40;99.90;;;;;;4965219;28;20035;-74
2022/11/05 12:00:22;;;;;;;8.13;5.05;;;12.40;99.90;;;;;;4965582;28;20039;-70
2022/11/05 12:02:55;;;;;;;8.75;5.63;;;12.40;99.90;;;;;;4981580;28;20308;-69
2022/11/05 12:05:46;;;;;;;8.57;5.43;;;12.40;99.90;;;;;;4982479;28;20173;-71
2022/11/05 12:08:49;;;;;;;10.82;5.70;;;12.30;99.90;;;;;;4982907;28;20046;-69
2022/11/05 12:11:24;;;;;;;11.77;5.75;;;12.30;99.90;;;;;;4964919;28;20034;-72
2022/11/05 12:14:48;;;;;;;9.80;5.07;;;12.40;99.90;;;;;;4981948;28;20098;-72
2022/11/05 12:17:25;;;;;;;6.95;4.43;;;12.60;99.90;;;;;;4927501;29;20099;-72
2022/11/05 12:20:09;;;;;;;7.07;4.00;;;12.60;99.90;;;;;;4960281;29;20046;-70
2022/11/05 12:23:21;;;;;;;9.15;5.00;;;12.60;99.90;;;;;;4962719;29;20055;-72
2022/11/05 12:26:16;;;;;;;7.75;4.43;;;12.70;99.90;;;;;;4962639;29;20356;-72
2022/11/05 12:28:57;;;;;;;9.10;4.63;;;13.10;99.90;;;;;;4973116;28;20035;-71
2022/11/05 12:31:47;;;;;;;6.68;4.20;;;13.40;99.90;;;;;;4982063;28;20045;-67
2022/11/05 12:34:30;;;;;;;5.78;3.47;;;13.60;99.90;;;;;;4982143;28;20185;-72
2022/11/05 12:37:11;;;;;;;5.78;3.45;;;14.10;99.90;;;;;;4945440;29;20097;-72
2022/11/05 12:39:56;;;;;;;5.13;3.35;;;16.20;99.90;;;;;;4962806;29;20043;-71
2022/11/05 12:43:01;;;;;;;5.68;3.25;;;16.60;99.90;;;;;;4962597;29;20372;-75
2022/11/05 12:46:05;;;;;;;4.53;2.78;;;18.60;97.40;;;;;;4962454;29;20062;-71
2022/11/05 12:49:07;;;;;;;4.43;2.80;;;19.50;94.10;;;;;;4884753;29;20279;-72
2022/11/05 12:51:35;;;;;;;4.60;3.00;;;18.70;94.10;;;;;;4884639;29;20037;-73
2022/11/05 12:54:07;;;;;;;5.32;3.83;;;17.60;95.10;;;;;;4868591;29;20052;-73
2022/11/05 12:56:48;;;;;;;5.53;3.05;;;16.70;96.70;;;;;;4902423;29;20052;-72
2022/11/05 12:59:29;;;;;;;5.47;3.53;;;15.80;97.40;;;;;;4892111;29;20032;-72
2022/11/05 13:02:32;;;;;;;5.20;3.30;;;15.40;98.30;;;;;;4898086;29;20049;-73
2022/11/05 13:05:11;;;;;;;4.05;3.05;;;15.00;98.80;;;;;;4884219;29;20049;-71
2022/11/05 13:07:42;;;;;;;8.68;4.43;;;14.50;99.40;;;;;;4884989;29;20053;-71
2022/11/05 13:10:33;;;;;;;6.47;3.70;;;14.10;99.90;;;;;;4884343;29;20059;-73
2022/11/05 13:13:12;;;;;;;5.60;3.83;;;13.70;99.90;;;;;;4884176;29;20196;-72
2022/11/05 13:15:51;;;;;;;7.38;4.05;;;13.50;99.90;;;;;;4884521;29;20056;-71
2022/11/05 13:18:25;;;;;;;6.82;4.00;;;13.30;99.90;;;;;;4892479;29;20045;-73
2022/11/05 13:20:53;;;;;;;7.15;3.55;;;13.10;99.90;;;;;;4961767;29;20035;-73
2022/11/05 13:23:45;;;;;;;5.25;3.70;;;13.20;99.90;;;;;;4962323;29;20317;-73
2022/11/05 13:26:14;;;;;;;8.48;3.65;;;13.20;99.90;;;;;;4951239;29;20058;-74
2022/11/05 13:28:52;;;;;;;5.93;3.60;;;13.20;99.90;;;;;;4961941;29;20380;-72
2022/11/05 13:31:25;;;;;;;6.97;3.85;;;13.20;99.90;;;;;;4962295;29;20043;-73
2022/11/05 13:33:51;;;;;;;5.90;3.05;;;13.30;99.90;;;;;;4961623;29;20088;-72
2022/11/05 13:39:40;;;;;;;5.68;4.10;;;13.10;99.90;;;;;;4948579;29;20039;-74
2022/11/05 13:42:05;;;;;;;7.03;4.25;;;13.20;99.90;;;;;;4949382;29;20213;-73
2022/11/05 13:45:14;;;;;;;6.30;3.45;;;13.00;99.90;;;;;;4960057;29;20042;-73
2022/11/05 13:47:58;;;;;;;6.40;3.05;;;12.70;99.90;;;;;;4868811;29;20107;-73
2022/11/05 13:50:44;;;;;;;6.30;3.25;;;12.60;99.90;;;;;;4868283;29;20037;-73
2022/11/05 13:53:41;;;;;;;6.55;3.85;;;12.50;99.90;;;;;;4851452;29;20414;-73
2022/11/05 13:56:46;;;;;;;5.63;3.60;;;12.40;99.90;;;;;;4853103;29;20232;-73
2022/11/05 13:59:29;;;;;;;6.75;3.53;;;12.20;99.90;;;;;;4834490;29;20470;-72
2022/11/05 14:01:58;;;;;;;8.20;3.83;;;12.10;99.90;;;;;;4858207;29;20084;-73
2022/11/05 14:04:36;;;;;;;7.90;4.38;;;12.00;99.90;;;;;;4891508;29;20419;-72
2022/11/05 14:07:14;;;;;;;5.82;3.72;;;11.90;99.90;;;;;;4890118;29;20389;-72
2022/11/05 14:09:41;;;;;;;5.78;4.10;;;11.80;99.90;;;;;;4888817;29;20041;-73
2022/11/05 14:12:22;;;;;;;6.45;4.18;;;11.70;99.90;;;;;;4901603;29;20063;-73
2022/11/05 14:14:54;;;;;;;6.05;3.70;;;11.60;99.90;;;;;;4907308;29;20045;-73
2022/11/05 14:17:53;;;;;;;7.88;4.40;;;11.50;99.90;;;;;;4907001;29;20108;-72
2022/11/05 14:20:38;;;;;;;6.95;4.18;;;11.50;99.90;;;;;;4907097;29;20622;-72
2022/11/05 14:23:37;;;;;;;6.53;4.28;;;11.30;99.90;;;;;;4890816;29;20365;-71
2022/11/05 14:26:13;;;;;;;7.72;3.95;;;11.40;99.90;;;;;;4934246;28;20045;-71
2022/11/05 14:29:10;;;;;;;7.30;3.60;;;11.30;99.90;;;;;;4975309;28;20055;-73
2022/11/05 14:31:45;;;;;;;6.23;3.13;;;11.20;99.90;;;;;;4961205;28;20047;-72
2022/11/05 14:34:11;;;;;;;6.32;3.72;;;11.10;99.90;;;;;;4965548;28;20078;-72
2022/11/05 14:36:42;;;;;;;7.55;3.50;;;11.00;99.90;;;;;;4965891;28;20043;-71
2022/11/05 14:39:26;;;;;;;8.88;3.47;;;11.00;99.90;;;;;;4965411;28;20027;-71
2022/11/05 14:42:01;;;;;;;8.48;4.00;;;11.00;99.90;;;;;;4966467;28;20082;-72
2022/11/05 14:44:29;;;;;;;6.70;3.40;;;10.90;99.90;;;;;;4966381;28;20054;-73
2022/11/05 14:46:59;;;;;;;8.85;3.50;;;10.90;99.90;;;;;;4965214;28;20023;-73
2022/11/05 14:49:37;;;;;;;9.38;3.38;;;11.00;99.90;;;;;;4965555;28;20034;-72
2022/11/05 14:52:08;;;;;;;;;;;10.80;99.90;;;;;;4965613;28;20094;-73
2022/11/05 14:54:49;;;;;;;6.03;3.50;;;10.80;99.90;;;;;;4965680;28;19932;-73
2022/11/05 14:57:55;;;;;;;6.85;3.40;;;10.70;99.90;;;;;;4964995;28;20035;-72
2022/11/05 15:00:40;;;;;;;5.65;3.17;;;10.70;99.90;;;;;;4980523;28;20224;-72
2022/11/05 15:03:40;;;;;;;5.65;3.17;;;10.70;99.90;;;;;;4984649;28;20174;-72
2022/11/05 15:06:28;;;;;;;8.20;3.78;;;10.70;99.90;;;;;;4984601;28;20029;-72
2022/11/05 15:09:08;;;;;;;5.78;3.42;;;10.70;99.90;;;;;;4967505;28;20221;-73
2022/11/05 15:11:36;;;;;;;7.93;3.67;;;10.70;99.90;;;;;;4984443;28;20305;-73
2022/11/05 15:14:19;;;;;;;8.27;3.60;;;10.60;99.90;;;;;;4983884;28;20304;-73
2022/11/05 15:16:51;;;;;;;6.30;3.70;;;10.60;99.90;;;;;;4984501;28;20268;-73
2022/11/05 15:19:23;;;;;;;7.13;3.67;;;10.50;99.90;;;;;;4984103;28;20312;-73
2022/11/05 15:21:49;;;;;;;9.50;4.43;;;10.50;99.90;;;;;;4984386;28;20088;-73
2022/11/05 15:24:17;;;;;;;8.02;3.70;;;10.50;99.90;;;;;;4984069;28;20065;-72
2022/11/05 15:27:31;;;;;;;8.13;3.83;;;10.50;99.90;;;;;;4984519;28;20081;-72
2022/11/05 15:30:14;;;;;;;7.05;3.78;;;10.60;99.90;;;;;;4956086;28;20054;-73
2022/11/05 15:32:40;;;;;;;6.90;3.55;;;10.50;99.90;;;;;;4984629;28;20025;-72
2022/11/05 15:35:25;;;;;;;7.88;4.35;;;10.40;99.90;;;;;;4966589;28;20097;-72
2022/11/05 15:37:54;;;;;;;12.98;4.35;;;10.50;99.90;;;;;;4966827;28;20026;-72
2022/11/05 15:40:28;;;;;;;7.97;4.35;;;10.50;99.90;;;;;;4983891;28;20351;-73
2022/11/05 15:43:20;;;;;;;7.22;3.78;;;10.40;99.90;;;;;;4984240;28;20027;-74
2022/11/05 15:46:03;;;;;;;8.65;3.88;;;10.50;99.90;;;;;;4980327;28;20050;-72
2022/11/05 15:48:29;;;;;;;8.88;4.55;;;10.40;99.90;;;;;;4983964;28;20309;-71
2022/11/05 15:50:55;;;;;;;7.63;4.20;;;10.40;99.90;;;;;;4983832;28;20035;-73
2022/11/05 15:53:44;;;;;;;7.63;4.57;;;10.40;99.90;;;;;;4983744;28;20035;-72
2022/11/05 15:56:20;;;;;;;6.70;3.70;;;10.30;99.90;;;;;;4973118;28;20046;-73
2022/11/05 15:58:53;;;;;;;7.68;3.90;;;10.30;99.90;;;;;;4983349;28;20297;-72
2022/11/05 16:01:33;;;;;;;6.47;3.83;;;10.30;99.90;;;;;;4981026;28;20073;-75
2022/11/05 16:04:15;;;;;;;8.57;4.30;;;10.30;99.90;;;;;;4976399;28;20114;-73
2022/11/05 16:06:43;;;;;;;7.43;4.30;;;10.30;99.90;;;;;;4983958;28;20031;-73
2022/11/05 16:09:25;;;;;;;6.28;3.75;;;10.30;99.90;;;;;;4983360;28;20042;-72
2022/11/05 16:12:10;;;;;;;8.10;4.57;;;10.30;99.90;;;;;;4983726;28;20226;-72
2022/11/05 16:14:37;;;;;;;9.60;4.88;;;10.30;99.90;;;;;;4983678;28;20074;-71
2022/11/05 16:17:23;;;;;;;7.70;4.50;;;10.20;99.90;;;;;;4983196;28;20078;-71
2022/11/05 16:19:50;;;;;;;6.70;3.92;;;10.30;99.90;;;;;;4983200;28;20031;-73
2022/11/05 16:22:16;;;;;;;10.85;4.70;;;10.20;99.90;;;;;;4981425;28;20019;-71
2022/11/05 16:24:43;;;;;;;10.07;5.93;;;10.10;99.90;;;;;;4983168;28;20022;-70
2022/11/05 16:27:15;;;;;;;6.95;4.30;;;10.10;99.90;;;;;;4982863;28;20034;-72
2022/11/05 16:29:54;;;;;;;7.85;3.83;;;10.00;99.90;;;;;;4983006;28;20027;-71
2022/11/05 16:32:26;;;;;;;8.65;5.10;;;10.00;99.90;;;;;;4982601;28;20050;-71
2022/11/05 16:35:03;;;;;;;10.30;4.38;;;9.90;99.90;;;;;;4980914;28;20043;-72
2022/11/05 16:37:36;;;;;;;8.15;4.65;;;9.90;99.90;;;;;;4973885;28;20055;-72
2022/11/05 16:40:11;;;;;;;8.25;4.85;;;9.90;99.90;;;;;;4999317;28;20045;-73
2022/11/05 16:42:38;;;;;;;8.20;4.47;;;9.90;99.90;;;;;;5001181;28;20113;-71
2022/11/05 16:45:05;;;;;;;7.30;4.28;;;9.90;99.90;;;;;;5000686;28;20038;-71
2022/11/05 16:47:31;;;;;;;9.18;4.28;;;9.90;99.90;;;;;;5001137;28;20027;-71
2022/11/05 16:49:57;;;;;;;7.63;4.28;;;9.80;99.90;;;;;;5000851;28;20193;-72
2022/11/05 16:52:23;;;;;;;7.97;4.30;;;9.70;99.90;;;;;;5000727;28;20031;-71
2022/11/05 16:54:52;;;;;;;9.07;4.45;;;9.60;99.90;;;;;;5000962;28;20085;-73
2022/11/05 16:57:22;;;;;;;;;;;9.60;99.90;;;;;;4981556;28;20317;-71
2022/11/05 16:59:48;;;;;;;7.15;3.75;;;9.40;99.90;;;;;;4993126;28;19906;-73
2022/11/05 17:02:13;;;;;;;8.68;4.10;;;9.30;99.90;;;;;;4976280;28;20074;-73
2022/11/05 17:04:42;;;;;;;8.98;4.50;;;9.20;99.90;;;;;;4964470;28;20054;-71
2022/11/05 17:07:08;;;;;;;9.23;5.13;;;9.10;99.90;;;;;;4981083;28;20031;-71
2022/11/05 17:09:33;;;;;;;9.75;5.20;;;9.00;99.90;;;;;;4982695;28;20073;-71
2022/11/05 17:12:01;;;;;;;14.25;7.82;;;8.90;99.90;;;;;;4985664;28;20165;-72
2022/11/05 17:14:27;;;;;;;14.10;6.20;;;8.80;99.90;;;;;;4985361;28;20034;-70
2022/11/05 17:16:52;;;;;;;8.90;5.20;;;8.70;99.90;;;;;;4985365;28;20035;-71
2022/11/05 17:19:18;;;;;;;8.55;5.32;;;8.60;99.90;;;;;;4984739;28;20030;-71
2022/11/05 17:21:44;;;;;;;9.45;5.65;;;8.60;99.90;;;;;;4985281;28;20034;-72
2022/11/05 17:24:10;;;;;;;14.20;6.10;;;8.40;99.90;;;;;;4967338;28;20037;-73
2022/11/05 17:26:35;;;;;;;11.57;6.60;;;8.40;99.90;;;;;;4967854;28;20304;-72
2022/11/05 17:29:01;;;;;;;11.27;6.57;;;8.30;99.90;;;;;;4972682;28;20134;-70
2022/11/05 17:31:27;;;;;;;11.77;6.95;;;8.20;99.90;;;;;;4985263;28;20043;-71
2022/11/05 17:33:57;;;;;;;10.10;6.30;;;8.20;99.90;;;;;;4985403;28;20030;-71
2022/11/05 17:36:22;;;;;;;14.60;7.32;;;8.10;99.90;;;;;;4984374;28;20558;-71
2022/11/05 17:38:48;;;;;;;12.73;7.78;;;8.10;99.90;;;;;;4984819;28;20133;-71
2022/11/05 17:41:20;;;;;;;14.15;8.25;;;8.00;99.90;;;;;;4984855;28;20224;-72
2022/11/05 17:43:46;;;;;;;14.95;9.30;;;8.00;99.90;;;;;;4967566;28;20086;-70
2022/11/05 17:46:15;;;;;;;14.68;9.23;;;7.90;99.90;;;;;;4984135;28;20067;-72
2022/11/05 17:48:41;;;;;;;14.73;9.13;;;7.90;99.90;;;;;;4984561;28;20045;-72
2022/11/05 17:51:11;;;;;;;15.43;7.72;;;7.80;99.90;;;;;;4984256;28;20043;-71
2022/11/05 17:53:38;;;;;;;14.35;8.45;;;7.80;99.90;;;;;;4984662;28;20365;-72
2022/11/05 17:56:12;;;;;;;13.30;8.10;;;7.70;99.90;;;;;;4984400;28;20471;-73
2022/11/05 17:58:38;;;;;;;13.80;7.93;;;7.70;99.90;;;;;;4984186;28;20256;-73
2022/11/05 18:01:05;;;;;;;15.45;8.68;;;7.60;99.90;;;;;;4984545;28;20035;-72
2022/11/05 18:03:32;;;;;;;14.17;7.70;;;7.60;99.90;;;;;;5002037;28;20332;-71
2022/11/05 18:06:05;;;;;;;13.20;8.20;;;7.50;99.90;;;;;;5004270;28;20057;-70
2022/11/05 18:08:32;;;;;;;12.52;7.82;;;7.40;99.90;;;;;;4986694;28;20031;-71
2022/11/05 18:10:58;;;;;;;14.60;8.70;;;7.30;99.90;;;;;;5003816;28;20066;-71
2022/11/05 18:13:24;;;;;;;15.35;8.35;;;7.10;99.90;;;;;;4985742;28;20042;-71
2022/11/05 18:15:53;;;;;;;15.20;9.48;;;7.00;99.90;;;;;;5000660;28;20067;-71
2022/11/05 18:18:19;;;;;;;17.88;9.00;;;7.00;99.90;;;;;;4992875;28;20022;-71
2022/11/05 18:20:45;;;;;;;18.58;10.07;;;6.90;99.90;;;;;;4977236;28;20194;-73
2022/11/05 18:23:11;;;;;;;13.85;9.70;;;6.90;99.90;;;;;;4985221;28;20093;-73
2022/11/05 18:25:39;;;;;;;15.32;9.77;;;6.90;99.90;;;;;;4989620;28;20111;-71
2022/11/05 18:28:05;;;;;;;15.60;8.85;;;6.90;99.90;;;;;;4994170;28;20022;-72
2022/11/05 18:30:31;;;;;;;14.73;9.82;;;6.90;99.90;;;;;;4995912;28;20093;-72
2022/11/05 18:32:57;;;;;;;17.17;9.50;;;6.90;99.90;;;;;;4987900;28;20308;-72
2022/11/05 18:35:23;;;;;;;15.45;9.55;;;6.90;99.90;;;;;;4987202;28;20034;-72
2022/11/05 18:37:49;;;;;;;17.63;10.73;;;6.80;99.90;;;;;;4994868;28;20114;-72
2022/11/05 18:40:14;;;;;;;17.48;10.02;;;6.80;99.90;;;;;;4991611;28;20053;-72
2022/11/05 18:42:40;;;;;;;15.30;10.00;;;6.70;99.90;;;;;;5000445;28;20034;-72
2022/11/05 18:45:07;;;;;;;17.20;11.30;;;6.60;99.90;;;;;;5003391;28;20022;-72
2022/11/05 18:47:33;;;;;;;19.40;11.45;;;6.60;99.90;;;;;;5003226;28;20034;-72
2022/11/05 18:49:59;;;;;;;22.30;13.55;;;6.50;99.90;;;;;;5002654;28;20182;-70
2022/11/05 18:52:27;;;;;;;24.25;12.35;;;6.40;99.90;;;;;;5002257;28;20309;-72
2022/11/05 18:54:53;;;;;;;19.83;11.93;;;6.40;99.90;;;;;;5002712;28;20181;-70
2022/11/05 18:57:19;;;;;;;21.63;12.82;;;6.40;99.90;;;;;;5002368;28;20105;-70
2022/11/05 18:59:45;;;;;;;25.10;14.13;;;6.30;99.90;;;;;;5002356;28;20029;-70
2022/11/05 19:02:12;;;;;;;21.00;13.73;;;6.30;99.90;;;;;;5001882;28;20054;-70
2022/11/05 19:04:39;;;;;;;21.52;12.50;;;6.20;99.90;;;;;;5001914;28;20097;-71
2022/11/05 19:07:06;;;;;;;21.38;12.30;;;6.20;99.90;;;;;;5002552;28;20097;-70
2022/11/05 19:09:33;;;;;;;20.52;11.88;;;6.10;99.90;;;;;;4984557;28;20034;-69
2022/11/05 19:12:00;;;;;;;17.15;11.77;;;6.10;99.90;;;;;;5001596;28;20065;-71
2022/11/05 19:14:29;;;;;;;20.77;12.82;;;6.10;99.90;;;;;;4958924;28;20093;-74
2022/11/05 19:16:56;;;;;;;22.52;13.38;;;6.00;99.90;;;;;;4964986;28;20099;-74